sensor_id;sensor_type;location;lat;lon;timestamp;pressure;altitude;pressure_sealevel;temperature;humidity
34235;BME280;20500;49.856;20.290;2023-01-29T00:02:28;99749.29;;;-0.45;78.75
34235;BME280;20500;49.856;20.290;2023-01-29T00:05:33;99740.52;;;-0.45;78.64
34235;BME280;20500;49.856;20.290;2023-01-29T00:08:39;99733.95;;;-0.45;78.68
34235;BME280;20500;49.856;20.290;2023-01-29T00:11:46;99738.14;;;-0.50;78.69
34235;BME280;20500;49.856;20.290;2023-01-29T00:14:50;99740.13;;;-0.53;78.75
34235;BME280;20500;49.856;20.290;2023-01-29T00:17:56;99742.91;;;-0.55;78.77
34235;BME280;20500;49.856;20.290;2023-01-29T00:21:01;99749.24;;;-0.56;78.83
34235;BME280;20500;49.856;20.290;2023-01-29T00:24:08;99748.48;;;-0.58;78.79
34235;BME280;20500;49.856;20.290;2023-01-29T00:27:15;99746.95;;;-0.59;78.95
34235;BME280;20500;49.856;20.290;2023-01-29T00:30:19;99747.39;;;-0.58;79.01
34235;BME280;20500;49.856;20.290;2023-01-29T00:33:27;99749.77;;;-0.56;79.05
34235;BME280;20500;49.856;20.290;2023-01-29T00:36:34;99758.02;;;-0.54;79.06
34235;BME280;20500;49.856;20.290;2023-01-29T00:39:40;99757.27;;;-0.53;79.00
34235;BME280;20500;49.856;20.290;2023-01-29T00:42:52;99753.23;;;-0.54;78.95
34235;BME280;20500;49.856;20.290;2023-01-29T00:46:12;99753.52;;;-0.56;79.12
34235;BME280;20500;49.856;20.290;2023-01-29T00:49:18;99755.27;;;-0.56;79.20
34235;BME280;20500;49.856;20.290;2023-01-29T00:52:23;99756.86;;;-0.58;79.16
34235;BME280;20500;49.856;20.290;2023-01-29T00:55:29;99755.63;;;-0.59;79.37
34235;BME280;20500;49.856;20.290;2023-01-29T00:58:35;99759.69;;;-0.58;79.41
34235;BME280;20500;49.856;20.290;2023-01-29T01:01:42;99758.52;;;-0.59;79.28
34235;BME280;20500;49.856;20.290;2023-01-29T01:05:06;99757.15;;;-0.60;79.37
34235;BME280;20500;49.856;20.290;2023-01-29T01:08:17;99760.13;;;-0.59;79.29
34235;BME280;20500;49.856;20.290;2023-01-29T01:11:41;99766.05;;;-0.60;79.35
34235;BME280;20500;49.856;20.290;2023-01-29T01:14:48;99764.08;;;-0.60;79.36
34235;BME280;20500;49.856;20.290;2023-01-29T01:17:55;99756.66;;;-0.61;79.43
34235;BME280;20500;49.856;20.290;2023-01-29T01:21:02;99759.30;;;-0.60;79.50
34235;BME280;20500;49.856;20.290;2023-01-29T01:24:09;99764.27;;;-0.60;79.50
34235;BME280;20500;49.856;20.290;2023-01-29T01:27:15;99763.45;;;-0.61;79.48
34235;BME280;20500;49.856;20.290;2023-01-29T01:30:24;99766.36;;;-0.65;79.51
34235;BME280;20500;49.856;20.290;2023-01-29T01:33:30;99766.98;;;-0.66;79.59
34235;BME280;20500;49.856;20.290;2023-01-29T01:36:36;99769.27;;;-0.63;79.72
34235;BME280;20500;49.856;20.290;2023-01-29T01:39:42;99763.42;;;-0.61;79.63
34235;BME280;20500;49.856;20.290;2023-01-29T01:42:54;99760.58;;;-0.64;79.61
34235;BME280;20500;49.856;20.290;2023-01-29T01:46:01;99760.91;;;-0.63;79.65
34235;BME280;20500;49.856;20.290;2023-01-29T01:49:07;99762.75;;;-0.64;79.71
34235;BME280;20500;49.856;20.290;2023-01-29T01:52:15;99772.55;;;-0.64;79.81
34235;BME280;20500;49.856;20.290;2023-01-29T01:55:26;99773.16;;;-0.65;79.82
34235;BME280;20500;49.856;20.290;2023-01-29T01:58:36;99769.44;;;-0.65;79.86
34235;BME280;20500;49.856;20.290;2023-01-29T02:01:45;99775.48;;;-0.65;79.80
34235;BME280;20500;49.856;20.290;2023-01-29T02:04:55;99775.56;;;-0.67;79.92
34235;BME280;20500;49.856;20.290;2023-01-29T02:08:22;99779.48;;;-0.64;79.99
34235;BME280;20500;49.856;20.290;2023-01-29T02:11:48;99771.66;;;-0.61;80.06
34235;BME280;20500;49.856;20.290;2023-01-29T02:14:55;99768.95;;;-0.58;80.02
34235;BME280;20500;49.856;20.290;2023-01-29T02:18:01;99769.29;;;-0.55;80.08
34235;BME280;20500;49.856;20.290;2023-01-29T02:21:11;99767.86;;;-0.52;80.05
34235;BME280;20500;49.856;20.290;2023-01-29T02:25:04;99762.23;;;-0.53;79.91
34235;BME280;20500;49.856;20.290;2023-01-29T02:28:40;99751.59;;;-0.54;79.99
34235;BME280;20500;49.856;20.290;2023-01-29T02:31:53;99738.46;;;-0.52;80.05
34235;BME280;20500;49.856;20.290;2023-01-29T02:35:09;99730.23;;;-0.52;80.00
34235;BME280;20500;49.856;20.290;2023-01-29T02:38:37;99723.62;;;-0.52;80.05
34235;BME280;20500;49.856;20.290;2023-01-29T02:41:52;99721.03;;;-0.50;80.04
34235;BME280;20500;49.856;20.290;2023-01-29T02:45:05;99720.80;;;-0.49;79.97
34235;BME280;20500;49.856;20.290;2023-01-29T02:48:18;99716.67;;;-0.48;80.04
34235;BME280;20500;49.856;20.290;2023-01-29T02:51:29;99715.98;;;-0.49;79.98
34235;BME280;20500;49.856;20.290;2023-01-29T02:54:43;99716.09;;;-0.51;79.96
34235;BME280;20500;49.856;20.290;2023-01-29T02:57:54;99720.02;;;-0.51;80.09
34235;BME280;20500;49.856;20.290;2023-01-29T03:01:03;99715.88;;;-0.50;79.92
34235;BME280;20500;49.856;20.290;2023-01-29T03:04:15;99721.36;;;-0.49;80.15
34235;BME280;20500;49.856;20.290;2023-01-29T03:07:27;99725.96;;;-0.48;80.06
34235;BME280;20500;49.856;20.290;2023-01-29T03:10:51;99729.61;;;-0.47;80.03
34235;BME280;20500;49.856;20.290;2023-01-29T03:14:03;99729.15;;;-0.48;80.00
34235;BME280;20500;49.856;20.290;2023-01-29T03:17:11;99723.71;;;-0.50;80.08
34235;BME280;20500;49.856;20.290;2023-01-29T03:20:17;99727.05;;;-0.52;79.97
34235;BME280;20500;49.856;20.290;2023-01-29T03:23:26;99725.70;;;-0.53;80.09
34235;BME280;20500;49.856;20.290;2023-01-29T03:26:53;99731.91;;;-0.56;79.96
34235;BME280;20500;49.856;20.290;2023-01-29T03:30:18;99739.96;;;-0.59;79.98
34235;BME280;20500;49.856;20.290;2023-01-29T03:33:46;99736.84;;;-0.63;79.97
34235;BME280;20500;49.856;20.290;2023-01-29T03:36:56;99742.48;;;-0.65;79.97
34235;BME280;20500;49.856;20.290;2023-01-29T03:40:05;99744.23;;;-0.67;79.85
34235;BME280;20500;49.856;20.290;2023-01-29T03:43:17;99742.95;;;-0.67;79.84
34235;BME280;20500;49.856;20.290;2023-01-29T03:46:28;99743.83;;;-0.69;79.96
34235;BME280;20500;49.856;20.290;2023-01-29T03:49:46;99741.02;;;-0.70;79.89
34235;BME280;20500;49.856;20.290;2023-01-29T03:53:03;99742.02;;;-0.72;79.88
34235;BME280;20500;49.856;20.290;2023-01-29T03:56:19;99745.33;;;-0.74;79.95
34235;BME280;20500;49.856;20.290;2023-01-29T03:59:35;99747.58;;;-0.72;79.79
34235;BME280;20500;49.856;20.290;2023-01-29T04:02:48;99746.70;;;-0.70;79.84
34235;BME280;20500;49.856;20.290;2023-01-29T04:05:57;99748.12;;;-0.70;79.74
34235;BME280;20500;49.856;20.290;2023-01-29T04:09:13;99745.85;;;-0.70;79.84
34235;BME280;20500;49.856;20.290;2023-01-29T04:12:27;99739.84;;;-0.68;79.76
34235;BME280;20500;49.856;20.290;2023-01-29T04:15:36;99735.23;;;-0.66;79.93
34235;BME280;20500;49.856;20.290;2023-01-29T04:18:46;99732.11;;;-0.67;79.68
34235;BME280;20500;49.856;20.290;2023-01-29T04:22:01;99728.46;;;-0.72;79.65
34235;BME280;20500;49.856;20.290;2023-01-29T04:25:12;99724.48;;;-0.74;79.60
34235;BME280;20500;49.856;20.290;2023-01-29T04:28:24;99722.23;;;-0.75;79.57
34235;BME280;20500;49.856;20.290;2023-01-29T04:31:36;99712.05;;;-0.71;79.72
34235;BME280;20500;49.856;20.290;2023-01-29T04:34:53;99706.75;;;-0.69;79.76
34235;BME280;20500;49.856;20.290;2023-01-29T04:38:07;99710.01;;;-0.70;79.68
34235;BME280;20500;49.856;20.290;2023-01-29T04:41:21;99716.92;;;-0.72;79.57
34235;BME280;20500;49.856;20.290;2023-01-29T04:44:35;99722.62;;;-0.72;79.61
34235;BME280;20500;49.856;20.290;2023-01-29T04:47:48;99719.71;;;-0.71;79.59
34235;BME280;20500;49.856;20.290;2023-01-29T04:51:05;99725.68;;;-0.73;79.44
34235;BME280;20500;49.856;20.290;2023-01-29T04:54:19;99725.52;;;-0.76;79.31
34235;BME280;20500;49.856;20.290;2023-01-29T04:57:39;99720.45;;;-0.78;79.24
34235;BME280;20500;49.856;20.290;2023-01-29T05:00:53;99710.48;;;-0.81;79.41
34235;BME280;20500;49.856;20.290;2023-01-29T05:04:02;99699.45;;;-0.78;79.53
34235;BME280;20500;49.856;20.290;2023-01-29T05:07:12;99688.95;;;-0.78;79.45
34235;BME280;20500;49.856;20.290;2023-01-29T05:10:20;99684.47;;;-0.78;79.43
34235;BME280;20500;49.856;20.290;2023-01-29T05:13:29;99688.11;;;-0.76;79.48
34235;BME280;20500;49.856;20.290;2023-01-29T05:16:41;99683.02;;;-0.80;79.22
34235;BME280;20500;49.856;20.290;2023-01-29T05:19:48;99680.94;;;-0.84;79.25
34235;BME280;20500;49.856;20.290;2023-01-29T05:22:54;99680.08;;;-0.87;79.22
34235;BME280;20500;49.856;20.290;2023-01-29T05:26:00;99678.48;;;-0.90;79.15
34235;BME280;20500;49.856;20.290;2023-01-29T05:29:05;99675.56;;;-0.95;79.07
34235;BME280;20500;49.856;20.290;2023-01-29T05:32:11;99676.92;;;-1.00;79.06
34235;BME280;20500;49.856;20.290;2023-01-29T05:35:17;99679.09;;;-1.04;79.00
34235;BME280;20500;49.856;20.290;2023-01-29T05:38:24;99675.41;;;-1.05;79.14
34235;BME280;20500;49.856;20.290;2023-01-29T05:41:31;99670.77;;;-1.04;79.15
34235;BME280;20500;49.856;20.290;2023-01-29T05:44:35;99675.30;;;-1.05;78.96
34235;BME280;20500;49.856;20.290;2023-01-29T05:47:41;99677.94;;;-1.08;79.11
34235;BME280;20500;49.856;20.290;2023-01-29T05:50:46;99679.73;;;-1.08;79.11
34235;BME280;20500;49.856;20.290;2023-01-29T05:53:52;99677.73;;;-1.10;78.98
34235;BME280;20500;49.856;20.290;2023-01-29T05:56:58;99683.95;;;-1.13;78.99
34235;BME280;20500;49.856;20.290;2023-01-29T06:00:06;99691.36;;;-1.14;78.94
34235;BME280;20500;49.856;20.290;2023-01-29T06:03:13;99698.33;;;-1.12;79.06
34235;BME280;20500;49.856;20.290;2023-01-29T06:06:20;99705.73;;;-1.08;79.08
34235;BME280;20500;49.856;20.290;2023-01-29T06:09:26;99710.81;;;-1.06;78.97
34235;BME280;20500;49.856;20.290;2023-01-29T06:12:31;99713.98;;;-1.09;78.92
34235;BME280;20500;49.856;20.290;2023-01-29T06:15:39;99718.94;;;-1.14;78.73
34235;BME280;20500;49.856;20.290;2023-01-29T06:18:46;99721.42;;;-1.20;78.78
34235;BME280;20500;49.856;20.290;2023-01-29T06:21:52;99727.68;;;-1.23;78.72
34235;BME280;20500;49.856;20.290;2023-01-29T06:24:58;99732.42;;;-1.28;78.53
34235;BME280;20500;49.856;20.290;2023-01-29T06:28:05;99736.00;;;-1.34;78.52
34235;BME280;20500;49.856;20.290;2023-01-29T06:31:11;99737.38;;;-1.39;78.52
34235;BME280;20500;49.856;20.290;2023-01-29T06:34:38;99748.14;;;-1.38;78.69
34235;BME280;20500;49.856;20.290;2023-01-29T06:37:44;99752.72;;;-1.40;78.69
34235;BME280;20500;49.856;20.290;2023-01-29T06:40:48;99753.63;;;-1.47;78.57
34235;BME280;20500;49.856;20.290;2023-01-29T06:43:55;99752.21;;;-1.50;78.43
34235;BME280;20500;49.856;20.290;2023-01-29T06:47:01;99745.44;;;-1.53;78.30
34235;BME280;20500;49.856;20.290;2023-01-29T06:50:10;99746.67;;;-1.59;78.23
34235;BME280;20500;49.856;20.290;2023-01-29T06:53:16;99754.27;;;-1.58;78.24
34235;BME280;20500;49.856;20.290;2023-01-29T06:56:23;99756.55;;;-1.54;78.29
34235;BME280;20500;49.856;20.290;2023-01-29T06:59:27;99765.20;;;-1.53;78.33
34235;BME280;20500;49.856;20.290;2023-01-29T07:02:33;99773.54;;;-1.53;78.33
34235;BME280;20500;49.856;20.290;2023-01-29T07:05:40;99775.23;;;-1.51;78.26
34235;BME280;20500;49.856;20.290;2023-01-29T07:08:44;99774.39;;;-1.52;78.16
34235;BME280;20500;49.856;20.290;2023-01-29T07:11:50;99776.45;;;-1.54;78.21
34235;BME280;20500;49.856;20.290;2023-01-29T07:14:57;99777.77;;;-1.58;78.02
34235;BME280;20500;49.856;20.290;2023-01-29T07:18:02;99782.02;;;-1.60;77.84
34235;BME280;20500;49.856;20.290;2023-01-29T07:21:15;99780.39;;;-1.66;77.78
34235;BME280;20500;49.856;20.290;2023-01-29T07:24:20;99783.20;;;-1.72;77.75
34235;BME280;20500;49.856;20.290;2023-01-29T07:27:26;99782.35;;;-1.76;77.69
34235;BME280;20500;49.856;20.290;2023-01-29T07:30:31;99781.91;;;-1.81;77.63
34235;BME280;20500;49.856;20.290;2023-01-29T07:33:37;99781.50;;;-1.86;77.57
34235;BME280;20500;49.856;20.290;2023-01-29T07:36:43;99773.38;;;-1.93;77.64
34235;BME280;20500;49.856;20.290;2023-01-29T07:39:48;99769.98;;;-1.96;77.55
34235;BME280;20500;49.856;20.290;2023-01-29T07:42:59;99769.24;;;-1.96;77.59
34235;BME280;20500;49.856;20.290;2023-01-29T07:46:06;99771.06;;;-1.93;77.73
34235;BME280;20500;49.856;20.290;2023-01-29T07:49:13;99774.11;;;-1.90;77.46
34235;BME280;20500;49.856;20.290;2023-01-29T07:52:17;99773.52;;;-1.89;77.60
34235;BME280;20500;49.856;20.290;2023-01-29T07:55:26;99780.05;;;-1.85;77.50
34235;BME280;20500;49.856;20.290;2023-01-29T07:58:32;99788.40;;;-1.85;77.47
34235;BME280;20500;49.856;20.290;2023-01-29T08:01:40;99795.13;;;-1.85;77.39
34235;BME280;20500;49.856;20.290;2023-01-29T08:04:46;99799.98;;;-1.85;77.23
34235;BME280;20500;49.856;20.290;2023-01-29T08:07:54;99811.79;;;-1.83;77.19
34235;BME280;20500;49.856;20.290;2023-01-29T08:11:10;99822.25;;;-1.83;77.05
34235;BME280;20500;49.856;20.290;2023-01-29T08:14:14;99825.25;;;-1.82;77.03
34235;BME280;20500;49.856;20.290;2023-01-29T08:17:21;99831.43;;;-1.78;77.06
34235;BME280;20500;49.856;20.290;2023-01-29T08:20:25;99834.68;;;-1.79;76.89
34235;BME280;20500;49.856;20.290;2023-01-29T08:23:32;99836.65;;;-1.83;76.72
34235;BME280;20500;49.856;20.290;2023-01-29T08:26:36;99839.23;;;-1.87;76.68
34235;BME280;20500;49.856;20.290;2023-01-29T08:29:43;99842.24;;;-1.87;76.79
34235;BME280;20500;49.856;20.290;2023-01-29T08:32:47;99846.13;;;-1.84;76.87
34235;BME280;20500;49.856;20.290;2023-01-29T08:35:53;99857.13;;;-1.83;76.84
34235;BME280;20500;49.856;20.290;2023-01-29T08:39:00;99860.55;;;-1.84;76.78
34235;BME280;20500;49.856;20.290;2023-01-29T08:42:06;99860.16;;;-1.80;76.67
34235;BME280;20500;49.856;20.290;2023-01-29T08:45:13;99866.98;;;-1.78;76.64
34235;BME280;20500;49.856;20.290;2023-01-29T08:48:19;99872.71;;;-1.72;76.76
34235;BME280;20500;49.856;20.290;2023-01-29T08:51:26;99881.54;;;-1.64;76.68
34235;BME280;20500;49.856;20.290;2023-01-29T08:54:32;99882.91;;;-1.63;76.50
34235;BME280;20500;49.856;20.290;2023-01-29T08:57:39;99875.77;;;-1.63;76.54
34235;BME280;20500;49.856;20.290;2023-01-29T09:00:45;99867.55;;;-1.63;76.35
34235;BME280;20500;49.856;20.290;2023-01-29T09:03:52;99859.70;;;-1.62;76.58
34235;BME280;20500;49.856;20.290;2023-01-29T09:06:58;99852.27;;;-1.57;76.65
34235;BME280;20500;49.856;20.290;2023-01-29T09:10:05;99853.77;;;-1.58;76.35
34235;BME280;20500;49.856;20.290;2023-01-29T09:13:11;99859.11;;;-1.58;76.50
34235;BME280;20500;49.856;20.290;2023-01-29T09:16:18;99860.77;;;-1.56;76.37
34235;BME280;20500;49.856;20.290;2023-01-29T09:19:22;99855.52;;;-1.55;76.38
34235;BME280;20500;49.856;20.290;2023-01-29T09:22:28;99844.48;;;-1.51;76.18
34235;BME280;20500;49.856;20.290;2023-01-29T09:25:35;99837.98;;;-1.43;76.32
34235;BME280;20500;49.856;20.290;2023-01-29T09:28:41;99831.73;;;-1.33;76.47
34235;BME280;20500;49.856;20.290;2023-01-29T09:31:48;99821.17;;;-1.27;76.38
34235;BME280;20500;49.856;20.290;2023-01-29T09:34:54;99817.03;;;-1.23;76.35
34235;BME280;20500;49.856;20.290;2023-01-29T09:38:00;99822.62;;;-1.17;76.31
34235;BME280;20500;49.856;20.290;2023-01-29T09:41:07;99830.22;;;-1.11;76.35
34235;BME280;20500;49.856;20.290;2023-01-29T09:44:25;99824.77;;;-1.03;76.31
34235;BME280;20500;49.856;20.290;2023-01-29T09:47:36;99821.25;;;-1.01;76.07
34235;BME280;20500;49.856;20.290;2023-01-29T09:50:45;99816.01;;;-0.96;75.95
34235;BME280;20500;49.856;20.290;2023-01-29T09:53:57;99809.21;;;-0.95;75.87
34235;BME280;20500;49.856;20.290;2023-01-29T09:57:11;99802.05;;;-0.89;75.93
34235;BME280;20500;49.856;20.290;2023-01-29T10:00:24;99796.77;;;-0.87;75.83
34235;BME280;20500;49.856;20.290;2023-01-29T10:03:45;99793.02;;;-0.81;75.67
34235;BME280;20500;49.856;20.290;2023-01-29T10:07:10;99792.88;;;-0.73;75.68
34235;BME280;20500;49.856;20.290;2023-01-29T10:10:36;99784.33;;;-0.64;75.80
34235;BME280;20500;49.856;20.290;2023-01-29T10:13:51;99778.68;;;-0.51;75.97
34235;BME280;20500;49.856;20.290;2023-01-29T10:17:12;99763.23;;;-0.43;75.57
34235;BME280;20500;49.856;20.290;2023-01-29T10:20:46;99756.98;;;-0.40;75.30
34235;BME280;20500;49.856;20.290;2023-01-29T10:24:00;99746.36;;;-0.41;75.34
34235;BME280;20500;49.856;20.290;2023-01-29T10:27:16;99738.83;;;-0.38;75.56
34235;BME280;20500;49.856;20.290;2023-01-29T10:30:28;99732.14;;;-0.36;75.25
34235;BME280;20500;49.856;20.290;2023-01-29T10:33:40;99729.56;;;-0.40;75.05
34235;BME280;20500;49.856;20.290;2023-01-29T10:37:10;99730.61;;;-0.37;75.06
34235;BME280;20500;49.856;20.290;2023-01-29T10:40:21;99736.15;;;-0.27;75.16
34235;BME280;20500;49.856;20.290;2023-01-29T10:43:33;99732.71;;;-0.12;75.24
34235;BME280;20500;49.856;20.290;2023-01-29T10:46:58;99728.59;;;-0.03;75.03
34235;BME280;20500;49.856;20.290;2023-01-29T10:50:20;99724.18;;;-0.02;74.83
34235;BME280;20500;49.856;20.290;2023-01-29T10:53:44;99711.42;;;-0.11;74.62
34235;BME280;20500;49.856;20.290;2023-01-29T10:57:01;99706.89;;;-0.18;74.69
34235;BME280;20500;49.856;20.290;2023-01-29T11:00:17;99702.22;;;-0.17;74.67
34235;BME280;20500;49.856;20.290;2023-01-29T11:03:27;99692.66;;;-0.16;74.45
34235;BME280;20500;49.856;20.290;2023-01-29T11:06:35;99684.23;;;-0.10;74.50
34235;BME280;20500;49.856;20.290;2023-01-29T11:09:45;99674.49;;;-0.06;74.43
34235;BME280;20500;49.856;20.290;2023-01-29T11:12:56;99660.59;;;-0.08;74.37
34235;BME280;20500;49.856;20.290;2023-01-29T11:16:05;99652.23;;;-0.17;74.10
34235;BME280;20500;49.856;20.290;2023-01-29T11:19:13;99646.13;;;-0.22;73.91
34235;BME280;20500;49.856;20.290;2023-01-29T11:22:20;99632.43;;;-0.28;73.85
34235;BME280;20500;49.856;20.290;2023-01-29T11:25:27;99628.11;;;-0.30;73.83
34235;BME280;20500;49.856;20.290;2023-01-29T11:28:41;99621.20;;;-0.28;73.82
34235;BME280;20500;49.856;20.290;2023-01-29T11:31:48;99617.42;;;-0.25;73.63
34235;BME280;20500;49.856;20.290;2023-01-29T11:35:02;99612.23;;;-0.25;73.72
34235;BME280;20500;49.856;20.290;2023-01-29T11:38:19;99608.45;;;-0.18;73.75
34235;BME280;20500;49.856;20.290;2023-01-29T11:41:27;99605.04;;;-0.18;73.59
34235;BME280;20500;49.856;20.290;2023-01-29T11:44:32;99595.05;;;-0.18;73.58
34235;BME280;20500;49.856;20.290;2023-01-29T11:47:40;99587.90;;;-0.15;73.45
34235;BME280;20500;49.856;20.290;2023-01-29T11:50:44;99577.46;;;-0.11;73.39
34235;BME280;20500;49.856;20.290;2023-01-29T11:53:57;99583.29;;;-0.13;73.24
34235;BME280;20500;49.856;20.290;2023-01-29T11:57:04;99582.32;;;-0.12;73.15
34235;BME280;20500;49.856;20.290;2023-01-29T12:00:25;99570.22;;;-0.12;73.13
34235;BME280;20500;49.856;20.290;2023-01-29T12:03:35;99564.23;;;-0.11;73.14
34235;BME280;20500;49.856;20.290;2023-01-29T12:06:45;99561.45;;;-0.09;73.01
34235;BME280;20500;49.856;20.290;2023-01-29T12:09:57;99553.20;;;-0.06;72.97
34235;BME280;20500;49.856;20.290;2023-01-29T12:13:20;99551.18;;;-0.10;72.81
34235;BME280;20500;49.856;20.290;2023-01-29T12:16:34;99547.31;;;-0.16;72.81
34235;BME280;20500;49.856;20.290;2023-01-29T12:19:46;99544.15;;;-0.22;72.77
34235;BME280;20500;49.856;20.290;2023-01-29T12:23:02;99540.52;;;-0.27;72.88
34235;BME280;20500;49.856;20.290;2023-01-29T12:26:12;99531.27;;;-0.24;72.80
34235;BME280;20500;49.856;20.290;2023-01-29T12:29:26;99534.61;;;-0.19;72.83
34235;BME280;20500;49.856;20.290;2023-01-29T12:32:42;99533.11;;;-0.10;72.77
34235;BME280;20500;49.856;20.290;2023-01-29T12:35:55;99532.83;;;0.03;72.82
34235;BME280;20500;49.856;20.290;2023-01-29T12:39:03;99534.95;;;0.11;72.66
34235;BME280;20500;49.856;20.290;2023-01-29T12:42:14;99534.62;;;0.13;72.50
34235;BME280;20500;49.856;20.290;2023-01-29T12:45:23;99539.61;;;0.13;72.41
34235;BME280;20500;49.856;20.290;2023-01-29T12:48:35;99548.02;;;0.08;72.35
34235;BME280;20500;49.856;20.290;2023-01-29T12:51:50;99546.88;;;-0.02;71.96
34235;BME280;20500;49.856;20.290;2023-01-29T12:55:01;99548.73;;;-0.03;72.05
34235;BME280;20500;49.856;20.290;2023-01-29T12:58:14;99542.27;;;0.00;71.95
34235;BME280;20500;49.856;20.290;2023-01-29T13:01:27;99540.23;;;-0.02;71.97
34235;BME280;20500;49.856;20.290;2023-01-29T13:04:39;99544.23;;;-0.03;71.88
34235;BME280;20500;49.856;20.290;2023-01-29T13:07:48;99543.77;;;-0.06;71.95
34235;BME280;20500;49.856;20.290;2023-01-29T13:10:58;99540.86;;;-0.08;71.85
34235;BME280;20500;49.856;20.290;2023-01-29T13:14:15;99538.74;;;-0.09;71.84
34235;BME280;20500;49.856;20.290;2023-01-29T13:17:27;99543.97;;;-0.04;71.79
34235;BME280;20500;49.856;20.290;2023-01-29T13:20:36;99541.40;;;0.03;71.78
34235;BME280;20500;49.856;20.290;2023-01-29T13:23:47;99545.34;;;0.03;71.48
34235;BME280;20500;49.856;20.290;2023-01-29T13:26:54;99543.38;;;-0.08;71.45
34235;BME280;20500;49.856;20.290;2023-01-29T13:30:02;99544.39;;;-0.20;71.58
34235;BME280;20500;49.856;20.290;2023-01-29T13:33:14;99540.09;;;-0.26;71.61
34235;BME280;20500;49.856;20.290;2023-01-29T13:36:28;99536.45;;;-0.35;71.46
34235;BME280;20500;49.856;20.290;2023-01-29T13:39:37;99539.20;;;-0.42;71.42
34235;BME280;20500;49.856;20.290;2023-01-29T13:42:49;99534.55;;;-0.42;71.45
34235;BME280;20500;49.856;20.290;2023-01-29T13:45:58;99526.29;;;-0.41;71.44
34235;BME280;20500;49.856;20.290;2023-01-29T13:49:26;99526.15;;;-0.34;71.56
34235;BME280;20500;49.856;20.290;2023-01-29T13:52:36;99524.12;;;-0.27;71.35
34235;BME280;20500;49.856;20.290;2023-01-29T13:55:47;99523.19;;;-0.27;71.13
34235;BME280;20500;49.856;20.290;2023-01-29T13:58:55;99525.64;;;-0.29;71.06
34235;BME280;20500;49.856;20.290;2023-01-29T14:02:23;99529.00;;;-0.33;71.00
34235;BME280;20500;49.856;20.290;2023-01-29T14:05:40;99526.28;;;-0.33;71.17
34235;BME280;20500;49.856;20.290;2023-01-29T14:08:47;99534.13;;;-0.35;70.90
34235;BME280;20500;49.856;20.290;2023-01-29T14:11:53;99530.69;;;-0.43;70.81
34235;BME280;20500;49.856;20.290;2023-01-29T14:15:20;99522.78;;;-0.52;70.73
34235;BME280;20500;49.856;20.290;2023-01-29T14:18:27;99527.02;;;-0.60;70.71
34235;BME280;20500;49.856;20.290;2023-01-29T14:21:34;99528.23;;;-0.62;70.72
34235;BME280;20500;49.856;20.290;2023-01-29T14:24:43;99526.30;;;-0.63;70.76
34235;BME280;20500;49.856;20.290;2023-01-29T14:27:49;99530.38;;;-0.65;70.61
34235;BME280;20500;49.856;20.290;2023-01-29T14:30:57;99535.02;;;-0.70;70.70
34235;BME280;20500;49.856;20.290;2023-01-29T14:34:06;99537.21;;;-0.80;70.61
34235;BME280;20500;49.856;20.290;2023-01-29T14:37:24;99540.41;;;-0.85;70.67
34235;BME280;20500;49.856;20.290;2023-01-29T14:40:33;99544.13;;;-0.85;70.63
34235;BME280;20500;49.856;20.290;2023-01-29T14:43:41;99545.17;;;-0.87;70.65
34235;BME280;20500;49.856;20.290;2023-01-29T14:46:47;99528.82;;;-0.93;70.55
34235;BME280;20500;49.856;20.290;2023-01-29T14:49:55;99524.05;;;-0.96;70.49
34235;BME280;20500;49.856;20.290;2023-01-29T14:53:04;99521.10;;;-0.98;70.62
34235;BME280;20500;49.856;20.290;2023-01-29T14:56:16;99517.99;;;-1.00;70.61
34235;BME280;20500;49.856;20.290;2023-01-29T14:59:25;99509.38;;;-1.02;70.48
34235;BME280;20500;49.856;20.290;2023-01-29T15:02:38;99503.23;;;-1.03;70.41
34235;BME280;20500;49.856;20.290;2023-01-29T15:05:46;99503.14;;;-1.07;70.29
34235;BME280;20500;49.856;20.290;2023-01-29T15:08:59;99503.54;;;-1.10;70.40
34235;BME280;20500;49.856;20.290;2023-01-29T15:12:15;99500.13;;;-1.10;70.49
34235;BME280;20500;49.856;20.290;2023-01-29T15:15:30;99498.52;;;-1.15;70.26
34235;BME280;20500;49.856;20.290;2023-01-29T15:18:40;99497.27;;;-1.21;70.33
34235;BME280;20500;49.856;20.290;2023-01-29T15:22:08;99494.79;;;-1.21;70.38
34235;BME280;20500;49.856;20.290;2023-01-29T15:25:15;99484.79;;;-1.23;70.43
34235;BME280;20500;49.856;20.290;2023-01-29T15:28:24;99483.01;;;-1.26;70.33
34235;BME280;20500;49.856;20.290;2023-01-29T15:31:33;99483.74;;;-1.29;70.42
34235;BME280;20500;49.856;20.290;2023-01-29T15:34:42;99488.88;;;-1.32;70.47
34235;BME280;20500;49.856;20.290;2023-01-29T15:38:01;99486.34;;;-1.31;70.43
34235;BME280;20500;49.856;20.290;2023-01-29T15:41:18;99483.13;;;-1.28;70.44
34235;BME280;20500;49.856;20.290;2023-01-29T15:44:25;99479.39;;;-1.31;70.19
34235;BME280;20500;49.856;20.290;2023-01-29T15:47:32;99475.88;;;-1.37;70.34
34235;BME280;20500;49.856;20.290;2023-01-29T15:50:41;99472.36;;;-1.38;70.39
34235;BME280;20500;49.856;20.290;2023-01-29T15:53:50;99466.12;;;-1.41;70.33
34235;BME280;20500;49.856;20.290;2023-01-29T15:56:58;99464.77;;;-1.42;70.42
34235;BME280;20500;49.856;20.290;2023-01-29T16:00:16;99460.73;;;-1.48;70.42
34235;BME280;20500;49.856;20.290;2023-01-29T16:03:26;99460.34;;;-1.56;70.46
34235;BME280;20500;49.856;20.290;2023-01-29T16:06:37;99455.13;;;-1.61;70.32
34235;BME280;20500;49.856;20.290;2023-01-29T16:09:45;99450.56;;;-1.68;70.36
34235;BME280;20500;49.856;20.290;2023-01-29T16:12:52;99454.03;;;-1.72;70.40
34235;BME280;20500;49.856;20.290;2023-01-29T16:16:00;99454.95;;;-1.75;70.36
34235;BME280;20500;49.856;20.290;2023-01-29T16:19:21;99448.35;;;-1.75;70.36
34235;BME280;20500;49.856;20.290;2023-01-29T16:22:30;99439.88;;;-1.76;70.38
34235;BME280;20500;49.856;20.290;2023-01-29T16:25:39;99439.17;;;-1.77;70.46
34235;BME280;20500;49.856;20.290;2023-01-29T16:28:45;99445.85;;;-1.75;70.37
34235;BME280;20500;49.856;20.290;2023-01-29T16:31:53;99453.79;;;-1.74;70.34
34235;BME280;20500;49.856;20.290;2023-01-29T16:35:11;99451.45;;;-1.73;70.34
34235;BME280;20500;49.856;20.290;2023-01-29T16:38:26;99450.54;;;-1.76;70.38